Terminal Aerodrome Forecast
Issued by NWS

Home | Current Version | Previous Version | Text Only | Print | Product List | Glossary On
Versions: 1 2 3 4 5 6 7 8 9 10 11 12 13 14 15 16 17 18 19 20 21 22 23
000
FTUS44 KBMX 301700 RRA
TAFEET
TAF
KEET 301739Z 3018/0118 06005KT P6SM SCT030
     FM010000 00000KT P6SM SKC
      TEMPO 0108/0112 4SM BR=

USA.gov is the U.S. government's official web portal to all federal, state and local government web resources and services.